Aérodrome :
LOGIN :

S'inscrire | Disclaimer

   EN    FR    IT 

 










Légende :    VFR   VFR Marginal   IFR   IFR Intensif   IFR Très Intensif
Visi : 
Plafond : 
>= 8 km
>= 3000ft
5 à 8 km
1000 à 3000 ft
1500m à 5 km
500 à 1000 ft
800 à 1500m
200 à 500 ft
< 800m
< 200 ft
Symboles :   Orages  Brouillard  Fortes neiges  Fortes précipitations  Vent > 20 kt
SIGMETs :   Divers  Orages  Givrage  Turbulence  Onde Orograph.  Cendres Volcan.







- Altitude de l'aérodrome : 325 ft
- Code IATA : BES
- Voir les cartes d'approche


LFRB - Brest

DERNIER METAR :
  • 251830Z AUTO 03009KT 7000 NSC 16/12 Q1016 TEMPO 2000 BR OVC004

METARs EXPIRÉS :
  • 251800Z AUTO 03010KT 360V060 8000 NSC 16/12 Q1016 TEMPO SHRA BKN012
  • 251730Z AUTO 03010KT 8000 NSC 17/12 Q1016 TEMPO SHRA BKN012
  • 251700Z AUTO 02011KT 9000 NSC 17/13 Q1016 NOSIG
  • 251630Z AUTO 02010KT 8000 NSC 18/13 Q1016 NOSIG
  • 251600Z AUTO 03011KT 360V060 8000 NSC 18/13 Q1016 NOSIG

TAF TAF LFRB
Valide du 25 à 18h jusqu'au 27 à 00h UTC


251700Z 2518/2624 04012KT 9999 BKN022
PROB30
TEMPO 2518/2520 SHRA BKN012
TEMPO 2520/2608 2000 BR OVC004
TEMPO 2608/2622 4000 SHRA SCT012CB BKN014
PROB30
TEMPO 2610/2622 1200 TSRA BKN012CB
ATIS : +33 2 98 32 02 71
Pas de NOTAMs connus pour ce terrain.
1 SIGMET publié pour la FIR Brest (LFRR) :
 
Orages noyés dans la masse
LFRR SIGMET 9 VALID 251700/251900 LFPW
LFRR BREST FIR/UIR EMBD TS OBS WI N4915 W00015 - N4815 W00015 - N4800 W00130 - N4845 W00130 - N4915 W00015 TOP FL390 STNR NC=



MET'MAP, la Météo Aéronautique d'un coup d'oeil ! - Copyright ORBIFLY Décembre 2007 - Disclaimer

ORBIFLY MET'MAP TEAM :

Programmation & Développement : Alexandra Zaïnal
Conception & Développement : Baudouin d'Aumeries
Co-Programmation & Développement : Marc-Olivier Méhu
Soutien technique & logistique : Manuel Goepfert

Contact : metmap@orbifly.com




SOURCES & CREDITS :

   NOAA